Airfield :
LOGIN :

Register | Disclaimer

   EN    FR    IT 

 










Legend :    VFR   Marginal VFR   IFR   Intensive IFR   Very Intensive IFR
Visi :
Ceiling :
>= 8 km
>= 3000ft
5 to 8 km
1000 to 3000 ft
1500m to 5 km
500 to 1000 ft
800 to 1500m
200 to 500 ft
< 800m
< 200 ft
Symbols :   Thunderstorms  Fog  Heavy snow  Heavy precipitations  Wind > 20 kt
SIGMETs :     Misc.  Thunderstorms  Icing  Turbulence  Mountain Waves  Volcanic Ashes







- Airport Elevation : 53 ft
- IATA code : HAM


EDDH - Hamburg

CURRENT METAR :
  • 190250Z 22008KT 9999 FEW016 BKN018 05/02 Q1011 NOSIG

EXPIRED METARs :
  • 190220Z 22006KT 9999 FEW035 05/01 Q1011 NOSIG
  • 190150Z 23006KT CAVOK 05/01 Q1012 NOSIG
  • 190120Z 21005KT CAVOK 05/01 Q1012 NOSIG
  • 190050Z 22004KT CAVOK 04/01 Q1012 NOSIG
  • 190020Z 16004KT CAVOK 04/00 Q1012 NOSIG
  • 182350Z 19002KT CAVOK 04/01 Q1012 NOSIG

TAF TAF EDDH
Valid from the 19 at 00:00 until the 20 at 06:00 UTC


182300Z 1900/2006 VRB03KT 9999 BKN030
BECMG 1900/1903 23007KT
TEMPO 1903/1908 BKN012
PROB30
TEMPO 1904/1907 4500 DZRA BKN007
BECMG 1908/1910 23012KT
TEMPO 1910/1917 27015G25KT
TEMPO 1913/1917 SHRA BKN014CB
TEMPO 1921/2006 BKN012
PROB30
TEMPO 2003/2006 BKN007
No reported NOTAMs for that airfield.



MET'MAP, your aeronautical weather chart ! - Copyright ORBIFLY December 2007 - Disclaimer

ORBIFLY MET'MAP TEAM :

Programming & Development : Alexandra Zaïnal
Concept & Development : Baudouin d'Aumeries
Co-Development & Prog : Marc-Olivier Méhu
Technical & hardware support : Manuel Goepfert

Contact : metmap@orbifly.com




SOURCES & CREDITS :

   NOAA